Wednesday, April 25, 2018, 12:09 AM CDT
Back to Local

KICT, Wichita Mid-continent Airport

Location: Wichita, KS, United States Lat: 37.65
Local Time: 12:09 AM CDT ( 5:09 GMT) Lon: -97.433
Time Zone: US/Central Elev: 1332 ft

Show me the last for .
Show Decoded

2018-04-24 23:53 METAR KICT 250453Z 34014KT 10SM BKN017 OVC090 10/07 A3020 RMK AO2 PK WND
                 34028/0425 SLP219 T01000072 $ =
2018-04-24 22:53 METAR KICT 250353Z 34017G26KT 10SM BKN015 OVC095 11/07 A3020 RMK AO2 PK WND
                 33027/0343 SLP221 T01060072 $ =
2018-04-24 22:32 METAR KICT 250332Z 34015KT 10SM BKN015 OVC095 11/08 A3020 RMK AO2 T01110078 $ =
2018-04-24 21:53 METAR KICT 250253Z 33016KT 10SM FEW025 BKN095 OVC110 12/08 A3020 RMK AO2 SLP221
                 T01170083 53018 $ =
2018-04-24 20:53 METAR KICT 250153Z 34017KT 10SM BKN080 OVC110 13/09 A3017 RMK AO2 SLP215
                 T01280089 $ =
2018-04-24 19:53 METAR KICT 250053Z 34019KT 10SM SCT070 BKN100 15/09 A3015 RMK AO2 SLP209
                 T01500089 $ =
2018-04-24 18:53 METAR KICT 242353Z 36021G27KT 10SM BKN120 BKN150 BKN200 17/08 A3014 RMK AO2 PK
                 WND 35027/2302 SLP205 T01670083 10256 20167 51008 $ =
2018-04-24 17:53 METAR KICT 242253Z 35019G26KT 10SM FEW075 BKN120 BKN150 18/09 A3014 RMK AO2 PK
                 WND 34028/2219 SLP203 T01780089 $ =
2018-04-24 16:53 METAR KICT 242153Z 33021G30KT 10SM FEW075 BKN120 19/09 A3013 RMK AO2 PK WND
                 33030/2149 SLP199 T01890089 $ =
2018-04-24 15:53 METAR KICT 242053Z 33021G30KT 10SM FEW050 SCT075 BKN120 BKN180 22/09 A3012 RMK
                 AO2 PK WND 34034/2032 SLP192 T02220094 55001 $ =
2018-04-24 14:53 METAR KICT 241953Z 02007G18KT 10SM SCT075 BKN120 BKN150 BKN180 OVC250 24/05
                 A3011 RMK AO2 SLP189 VIRGA DSIPTD T02440050 $ =
2018-04-24 13:53 METAR KICT 241853Z VRB06G15KT 10SM SCT120 SCT150 BKN180 BKN250 25/03 A3012 RMK
                 AO2 SLP189 VIRGA NW-NE T02500033 $ =
2018-04-24 12:53 METAR KICT 241753Z 26004KT 10SM FEW120 SCT150 BKN180 OVC250 23/03 A3012 RMK AO2
                 SLP192 T02330028 10244 20089 58007 $ =
2018-04-24 11:53 METAR KICT 241653Z 01008KT 10SM FEW120 SCT150 BKN180 BKN250 24/03 A3013 RMK AO2
                 SLP195 T02390033 $ =
2018-04-24 10:53 METAR KICT 241553Z 31005KT 10SM FEW120 FEW150 SCT180 SCT250 22/06 A3015 RMK AO2
                 SLP203 T02170056 $ =
2018-04-24 09:53 METAR KICT 241453Z 00000KT 10SM FEW150 SCT180 SCT250 18/07 A3014 RMK AO2 SLP200
                 T01830067 51008 $ =
2018-04-24 08:53 METAR KICT 241353Z 01003KT 10SM FEW180 SCT250 15/07 A3014 RMK AO2 SLP199
                 T01500067 $ =
2018-04-24 07:53 METAR KICT 241253Z 30004KT 10SM FEW120 FEW180 SCT250 11/07 A3013 RMK AO2 SLP199
                 T01060072 $ =
2018-04-24 06:53 METAR KICT 241153Z 00000KT 10SM FEW120 FEW250 09/06 A3012 RMK AO2 SLP193
                 T00940056 10144 20072 53014 $ =
2018-04-24 05:53 METAR KICT 241053Z 35006KT 10SM FEW250 09/06 A3009 RMK AO2 SLP185 T00890061 $ =
2018-04-24 04:53 METAR KICT 240953Z 34006KT 10SM FEW250 08/06 A3008 RMK AO2 SLP182 T00830061 =
2018-04-24 03:53 METAR KICT 240853Z 35005KT 10SM FEW250 11/07 A3007 RMK AO2 SLP177 T01110067
                 51006 =
2018-04-24 02:53 METAR KICT 240753Z 35004KT 10SM FEW250 12/07 A3007 RMK AO2 SLP177 T01170067 =
2018-04-24 01:53 METAR KICT 240653Z 35003KT 10SM FEW250 14/07 A3007 RMK AO2 SLP174 T01440067 =
2018-04-24 00:53 METAR KICT 240553Z 00000KT 10SM FEW250 13/07 A3006 RMK AO2 SLP171 T01330072
                 10222 20117 402330072 51001 =

Support USWX by starting your Amazon purchase here.